createdAt,value
2024-04-14T00:13:34.065Z,20.06
2024-04-14T00:21:36.221Z,18.65
2024-04-14T00:25:32.324Z,18.65
2024-04-14T00:38:28.423Z,19.32
2024-04-14T01:18:30.966Z,19.45
2024-04-14T01:37:22.114Z,17.04
2024-04-14T02:23:07.529Z,17.57
2024-04-14T02:25:37.287Z,17.50
2024-04-14T02:28:06.588Z,17.34
2024-04-14T02:30:35.564Z,17.42
2024-04-14T02:33:05.113Z,17.38
2024-04-14T02:35:34.240Z,17.26
2024-04-14T02:38:03.510Z,17.16
2024-04-14T02:40:32.418Z,17.02
2024-04-14T02:43:01.336Z,16.78
2024-04-14T02:45:32.619Z,16.77
2024-04-14T02:48:04.822Z,16.62
2024-04-14T02:50:33.890Z,16.44
2024-04-14T02:53:02.716Z,16.33
2024-04-14T02:55:32.160Z,16.21
2024-04-14T02:58:03.505Z,16.08
2024-04-14T03:00:33.303Z,15.90
2024-04-14T03:03:02.852Z,15.69
2024-04-14T03:05:31.977Z,15.51
2024-04-14T03:08:01.117Z,15.46
2024-04-14T03:10:30.351Z,15.49
2024-04-14T03:12:59.332Z,15.42
2024-04-14T03:15:28.689Z,15.28
2024-04-14T03:17:58.032Z,15.16
2024-04-14T03:20:27.042Z,15.16
2024-04-14T03:22:55.999Z,15.11
2024-04-14T03:25:25.634Z,15.00
2024-04-14T03:27:55.033Z,14.83
2024-04-14T03:30:24.186Z,14.82
2024-04-14T03:32:54.889Z,14.72
2024-04-14T03:35:24.057Z,14.60
2024-04-14T03:37:52.937Z,14.47
2024-04-14T03:40:21.997Z,14.35
2024-04-14T03:42:51.614Z,14.22
2024-04-14T03:45:24.143Z,14.20
2024-04-14T03:47:56.665Z,14.01
2024-04-14T03:50:25.666Z,13.75
2024-04-14T03:52:54.566Z,13.46
2024-04-14T03:55:23.585Z,13.57
2024-04-14T03:57:52.482Z,13.20
2024-04-14T04:00:21.473Z,13.34
2024-04-14T04:02:50.461Z,13.65
2024-04-14T04:05:20.710Z,13.65
2024-04-14T04:07:50.585Z,13.58
2024-04-14T04:10:19.608Z,13.50
2024-04-14T04:12:49.359Z,13.44
2024-04-14T04:15:18.460Z,13.37
2024-04-14T04:17:47.939Z,13.24
2024-04-14T04:20:17.063Z,13.26
2024-04-14T04:22:46.757Z,13.17
2024-04-14T04:25:15.958Z,12.94
2024-04-14T04:27:44.931Z,12.27
2024-04-14T04:30:14.680Z,12.20
2024-04-14T04:32:43.789Z,12.65
2024-04-14T04:35:12.866Z,12.84
2024-04-14T04:37:45.646Z,12.78
2024-04-14T04:40:17.064Z,12.80
2024-04-14T04:42:46.831Z,12.84
2024-04-14T04:45:17.917Z,12.79
2024-04-14T04:47:50.197Z,12.68
2024-04-14T04:50:20.722Z,12.63
2024-04-14T04:52:51.460Z,12.44
2024-04-14T04:55:22.240Z,12.28
2024-04-14T04:57:53.032Z,12.46
2024-04-14T05:00:23.751Z,12.55
2024-04-14T05:02:54.381Z,12.54
2024-04-14T05:05:25.367Z,12.54
2024-04-14T05:07:56.367Z,12.37
2024-04-14T05:10:29.679Z,12.22
2024-04-14T05:13:02.098Z,12.07
2024-04-14T05:15:32.954Z,12.00
2024-04-14T05:18:03.630Z,11.93
2024-04-14T05:20:33.492Z,12.11
2024-04-14T05:23:04.169Z,11.99
2024-04-14T05:25:34.981Z,11.83
2024-04-14T05:28:05.358Z,11.74
2024-04-14T05:30:39.636Z,11.92
2024-04-14T05:33:09.563Z,12.06
2024-04-14T05:35:41.002Z,12.04
2024-04-14T05:38:11.825Z,11.97
2024-04-14T05:40:42.902Z,11.82
2024-04-14T05:43:13.934Z,11.71
2024-04-14T05:45:45.219Z,11.52
2024-04-14T05:48:18.971Z,11.27
2024-04-14T05:51:15.354Z,11.21
2024-04-14T05:54:17.811Z,10.99
2024-04-14T05:57:35.388Z,11.07
2024-04-14T06:00:11.626Z,11.17
2024-04-14T06:02:48.208Z,11.18
2024-04-14T06:05:22.748Z,10.89
2024-04-14T06:08:03.386Z,10.69
2024-04-14T06:10:37.722Z,10.65
2024-04-14T06:13:08.100Z,10.68
2024-04-14T06:15:38.987Z,10.67
2024-04-14T06:18:11.703Z,10.65
2024-04-14T06:20:44.779Z,10.71
2024-04-14T06:23:17.264Z,10.79
2024-04-14T06:25:51.482Z,10.63
2024-04-14T06:28:22.833Z,10.61
2024-04-14T06:30:56.507Z,10.66
2024-04-14T06:33:26.156Z,10.66
2024-04-14T06:35:57.004Z,10.57
2024-04-14T06:38:29.283Z,10.93
2024-04-14T06:41:04.289Z,10.89
2024-04-14T06:43:34.019Z,10.82
2024-04-14T06:46:04.568Z,10.81
2024-04-14T06:48:35.156Z,10.55
2024-04-14T06:51:05.943Z,10.30
2024-04-14T06:53:35.482Z,10.60
2024-04-14T06:56:07.098Z,10.67
2024-04-14T06:58:38.969Z,10.50
2024-04-14T07:01:11.938Z,10.35
2024-04-14T07:03:42.744Z,10.34
2024-04-14T07:06:12.736Z,10.30
2024-04-14T07:08:43.459Z,10.24
2024-04-14T07:11:21.018Z,10.37
2024-04-14T07:14:02.149Z,10.34
2024-04-14T07:16:38.004Z,10.14
2024-04-14T07:19:08.845Z,10.02
2024-04-14T07:21:46.716Z,9.92
2024-04-14T07:24:19.601Z,9.86
2024-04-14T07:26:58.783Z,9.96
2024-04-14T07:29:31.815Z,9.92
2024-04-14T07:32:01.885Z,10.11
2024-04-14T07:34:34.371Z,10.18
2024-04-14T07:37:05.220Z,10.13
2024-04-14T07:39:36.878Z,10.11
2024-04-14T07:42:11.437Z,10.15
2024-04-14T07:44:41.598Z,10.06
2024-04-14T07:47:19.724Z,9.86
2024-04-14T07:49:53.758Z,10.00
2024-04-14T07:52:28.471Z,9.91
2024-04-14T07:54:58.136Z,9.89
2024-04-14T07:57:33.124Z,9.99
2024-04-14T08:00:08.558Z,10.00
2024-04-14T08:02:44.917Z,9.73
2024-04-14T08:05:15.075Z,9.81
2024-04-14T08:07:47.371Z,9.80
2024-04-14T08:10:26.801Z,9.55
2024-04-14T08:12:59.526Z,9.43
2024-04-14T08:15:32.280Z,9.48
2024-04-14T08:18:10.854Z,9.36
2024-04-14T08:20:43.665Z,9.18
2024-04-14T08:23:24.789Z,9.15
2024-04-14T08:25:54.476Z,9.02
2024-04-14T08:28:32.901Z,8.95
2024-04-14T08:31:02.689Z,9.00
2024-04-14T08:33:32.456Z,8.70
2024-04-14T08:36:02.642Z,8.76
2024-04-14T08:38:44.119Z,8.67
2024-04-14T08:41:24.955Z,8.47
2024-04-14T08:43:58.511Z,8.30
2024-04-14T08:46:32.291Z,8.35
2024-04-14T08:49:03.822Z,8.58
2024-04-14T08:51:33.856Z,8.72
2024-04-14T08:54:07.106Z,8.89
2024-04-14T08:56:37.449Z,9.07
2024-04-14T08:59:10.458Z,9.04
2024-04-14T09:01:41.177Z,8.79
2024-04-14T09:04:11.953Z,8.55
2024-04-14T09:06:47.009Z,8.55
2024-04-14T09:09:27.774Z,8.41
2024-04-14T09:12:01.038Z,8.50
2024-04-14T09:14:30.586Z,8.35
2024-04-14T09:17:00.455Z,8.34
2024-04-14T09:19:30.308Z,8.19
2024-04-14T09:22:05.963Z,8.13
2024-04-14T09:24:35.886Z,7.83
2024-04-14T09:27:06.413Z,7.81
2024-04-14T09:29:41.392Z,7.80
2024-04-14T09:32:18.546Z,7.92
2024-04-14T09:34:48.514Z,8.17
2024-04-14T09:37:20.683Z,8.24
2024-04-14T09:39:52.395Z,8.00
2024-04-14T09:42:21.979Z,7.68
2024-04-14T09:44:54.553Z,7.83
2024-04-14T09:47:24.702Z,7.89
2024-04-14T09:49:58.505Z,7.81
2024-04-14T09:52:32.390Z,7.82
2024-04-14T09:55:08.746Z,7.49
2024-04-14T09:57:38.434Z,7.71
2024-04-14T10:00:13.654Z,7.72
2024-04-14T10:02:50.440Z,7.77
2024-04-14T10:05:21.121Z,7.63
2024-04-14T10:07:51.981Z,7.56
2024-04-14T10:10:21.791Z,7.46
2024-04-14T10:12:57.724Z,7.53
2024-04-14T10:15:27.751Z,7.59
2024-04-14T10:18:22.836Z,7.49
2024-04-14T10:20:55.363Z,7.56
2024-04-14T10:23:26.516Z,7.24
2024-04-14T10:25:56.944Z,7.26
2024-04-14T10:28:29.385Z,7.29
2024-04-14T10:31:04.087Z,7.15
2024-04-14T10:33:36.291Z,6.91
2024-04-14T10:36:08.879Z,6.97
2024-04-14T10:38:48.473Z,6.92
2024-04-14T10:41:20.629Z,6.57
2024-04-14T10:43:52.217Z,6.39
2024-04-14T10:46:21.724Z,6.65
2024-04-14T10:48:53.652Z,6.35
2024-04-14T10:51:25.753Z,6.41
2024-04-14T10:53:55.980Z,6.52
2024-04-14T10:56:28.646Z,6.37
2024-04-14T10:58:58.662Z,6.55
2024-04-14T11:01:29.981Z,6.50
2024-04-14T11:04:00.670Z,6.48
2024-04-14T11:06:32.849Z,6.62
2024-04-14T11:11:57.226Z,6.61
2024-04-14T11:14:29.486Z,6.49
2024-04-14T11:16:59.268Z,6.54
2024-04-14T11:19:36.991Z,6.63
2024-04-14T11:22:06.948Z,6.83
2024-04-14T11:24:39.726Z,6.80
2024-04-14T11:27:11.857Z,6.81
2024-04-14T11:29:42.180Z,6.73
2024-04-14T11:32:35.197Z,6.75
2024-04-14T11:35:07.840Z,6.23
2024-04-14T11:37:38.901Z,5.98
2024-04-14T11:40:11.914Z,6.12
2024-04-14T11:42:42.088Z,6.31
2024-04-14T11:45:13.737Z,6.46
2024-04-14T11:47:53.215Z,6.05
2024-04-14T11:50:23.001Z,5.88
2024-04-14T11:52:55.588Z,6.20
2024-04-14T11:55:25.596Z,6.21
2024-04-14T11:57:55.669Z,6.26
2024-04-14T12:00:25.000Z,6.02
2024-04-14T12:02:54.653Z,5.96
2024-04-14T12:05:23.942Z,5.99
2024-04-14T12:07:53.530Z,5.97
2024-04-14T12:13:10.964Z,6.19
2024-04-14T12:15:40.570Z,6.33
2024-04-14T12:18:11.465Z,5.72
2024-04-14T12:20:41.432Z,5.46
2024-04-14T12:23:11.887Z,5.39
2024-04-14T12:25:41.565Z,5.49
2024-04-14T12:28:11.107Z,5.60
2024-04-14T12:30:46.588Z,5.86
2024-04-14T12:33:21.573Z,5.68
2024-04-14T12:35:52.116Z,5.45
2024-04-14T12:38:21.776Z,5.49
2024-04-14T12:40:51.406Z,5.63
2024-04-14T12:43:20.785Z,5.56
2024-04-14T12:45:55.817Z,5.56
2024-04-14T12:48:26.803Z,5.62
2024-04-14T12:50:57.834Z,5.61
2024-04-14T12:53:29.751Z,5.57
2024-04-14T12:56:02.456Z,5.56
2024-04-14T12:58:32.082Z,5.67
2024-04-14T13:01:03.124Z,5.75
2024-04-14T13:03:41.914Z,5.85
2024-04-14T13:06:11.718Z,5.93
2024-04-14T13:08:46.579Z,5.66
2024-04-14T13:11:16.653Z,5.54
2024-04-14T13:13:50.469Z,5.75
2024-04-14T13:16:32.143Z,5.62
2024-04-14T13:19:02.839Z,5.85
2024-04-14T13:21:35.581Z,6.05
2024-04-14T13:24:05.941Z,5.81
2024-04-14T13:26:52.542Z,5.75
2024-04-14T13:29:22.320Z,5.67
2024-04-14T13:31:54.307Z,5.50
2024-04-14T13:34:24.144Z,5.39
2024-04-14T13:36:55.432Z,5.34
2024-04-14T13:39:32.588Z,5.51
2024-04-14T13:42:05.217Z,5.55
2024-04-14T13:44:39.223Z,5.74
2024-04-14T13:47:11.122Z,5.45
2024-04-14T13:49:46.626Z,5.52
2024-04-14T13:52:17.255Z,5.29
2024-04-14T13:54:53.538Z,5.39
2024-04-14T13:57:29.339Z,5.61
2024-04-14T14:00:02.531Z,5.60
2024-04-14T14:02:32.222Z,5.57
2024-04-14T14:05:01.872Z,5.73
2024-04-14T14:07:34.176Z,5.74
2024-04-14T14:10:07.793Z,5.60
2024-04-14T14:12:37.552Z,5.58
2024-04-14T14:15:15.982Z,6.07
2024-04-14T14:17:46.436Z,5.64
2024-04-14T14:20:16.515Z,5.79
2024-04-14T14:23:06.853Z,5.65
2024-04-14T14:25:38.394Z,5.68
2024-04-14T14:28:11.253Z,5.86
2024-04-14T14:30:46.494Z,5.90
2024-04-14T14:33:38.392Z,6.00
2024-04-14T14:36:32.111Z,5.93
2024-04-14T14:39:08.765Z,6.27
2024-04-14T14:41:39.042Z,5.79
2024-04-14T14:44:11.881Z,5.77
2024-04-14T14:46:43.777Z,6.07
2024-04-14T14:49:16.571Z,5.99
2024-04-14T14:51:46.773Z,5.92
2024-04-14T14:54:17.430Z,5.96
2024-04-14T14:56:50.124Z,6.12
2024-04-14T14:59:20.792Z,6.01
2024-04-14T15:01:53.418Z,6.21
2024-04-14T15:04:23.359Z,6.41
2024-04-14T15:06:56.972Z,6.46
2024-04-14T15:09:26.473Z,6.55
2024-04-14T15:11:57.849Z,6.63
2024-04-14T15:14:27.308Z,6.79
2024-04-14T15:17:10.706Z,6.74
2024-04-14T15:19:43.306Z,6.75
2024-04-14T15:27:05.544Z,6.99
2024-04-14T15:34:01.630Z,7.15
2024-04-14T15:37:23.998Z,7.22
2024-04-14T15:40:09.009Z,7.33
2024-04-14T15:43:15.292Z,7.41
2024-04-14T15:50:15.652Z,7.66
2024-04-14T15:53:10.077Z,7.67
2024-04-14T16:00:05.627Z,7.89
2024-04-14T16:06:27.561Z,8.03
2024-04-14T16:10:00.596Z,8.12
2024-04-14T16:13:09.786Z,8.21
2024-04-14T16:15:51.682Z,8.29
2024-04-14T16:18:27.857Z,8.37
2024-04-14T16:21:33.688Z,8.46
2024-04-14T16:24:25.710Z,8.51
2024-04-14T16:27:46.042Z,8.63
2024-04-14T16:30:37.280Z,8.77
2024-04-14T16:33:57.054Z,8.87
2024-04-14T16:40:08.248Z,8.95
2024-04-14T16:43:08.921Z,8.96
2024-04-14T16:49:34.641Z,9.26
2024-04-14T16:54:25.074Z,9.46
2024-04-14T17:55:02.332Z,13.02
2024-04-14T17:57:31.932Z,13.15
2024-04-14T18:00:04.377Z,13.13
2024-04-14T18:02:40.908Z,13.23
2024-04-14T18:05:10.886Z,13.33
2024-04-14T18:07:40.316Z,13.43
2024-04-14T18:10:09.544Z,13.65
2024-04-14T18:12:38.650Z,13.77
2024-04-14T18:15:08.233Z,14.01
2024-04-14T18:17:37.217Z,14.25
2024-04-14T18:20:08.220Z,14.48
2024-04-14T18:22:37.148Z,14.49
2024-04-14T18:25:06.427Z,14.46
2024-04-14T18:27:35.584Z,14.81
2024-04-14T18:30:07.696Z,14.99
2024-04-14T18:32:38.933Z,15.26
2024-04-14T18:35:08.924Z,15.16
2024-04-14T18:37:38.054Z,15.12
2024-04-14T18:40:07.581Z,15.57
2024-04-14T18:42:36.582Z,15.71
2024-04-14T18:45:05.642Z,15.87
2024-04-14T18:47:34.829Z,15.64
2024-04-14T18:50:04.095Z,15.71
2024-04-14T18:52:34.076Z,15.91
2024-04-14T18:55:04.053Z,16.14
2024-04-14T18:57:33.086Z,16.18
2024-04-14T19:00:02.077Z,16.50
2024-04-14T19:02:31.160Z,16.47
2024-04-14T19:05:02.533Z,16.63
2024-04-14T19:07:32.353Z,16.27
2024-04-14T19:10:01.807Z,16.29
2024-04-14T19:12:30.823Z,15.95
2024-04-14T19:14:59.793Z,16.46
2024-04-14T19:17:29.260Z,16.31
2024-04-14T19:19:58.293Z,16.08
2024-04-14T19:22:27.212Z,16.03
2024-04-14T19:24:56.178Z,16.09
2024-04-14T19:27:25.169Z,16.38
2024-04-14T19:29:54.156Z,16.58
2024-04-14T19:32:23.610Z,16.88
2024-04-14T19:34:52.715Z,17.18
2024-04-14T19:37:24.609Z,17.03
2024-04-14T19:39:53.587Z,17.12
2024-04-14T19:42:24.980Z,16.94
2024-04-14T19:44:53.898Z,17.11
2024-04-14T19:47:23.892Z,17.17
2024-04-14T19:49:52.877Z,16.95
2024-04-14T19:52:21.772Z,16.45
2024-04-14T19:54:56.710Z,16.47
2024-04-14T19:57:25.977Z,17.26
2024-04-14T19:59:55.149Z,17.65
2024-04-14T20:02:24.382Z,17.26
2024-04-14T20:04:53.243Z,17.60
2024-04-14T20:07:22.205Z,17.29
2024-04-14T20:09:51.054Z,17.42
2024-04-14T20:12:20.382Z,17.97
2024-04-14T20:14:50.539Z,18.01
2024-04-14T20:17:20.376Z,17.17
2024-04-14T20:19:49.344Z,17.06
2024-04-14T20:22:18.352Z,17.28
2024-04-14T20:24:47.638Z,17.40
2024-04-14T20:27:16.736Z,17.95
2024-04-14T20:29:45.719Z,17.99
2024-04-14T20:32:14.824Z,17.86
2024-04-14T20:34:43.828Z,17.70
2024-04-14T20:37:12.894Z,18.42
2024-04-14T20:39:42.064Z,18.82
2024-04-14T20:42:22.215Z,18.16
2024-04-14T20:44:51.424Z,17.99
2024-04-14T20:47:21.682Z,18.20
2024-04-14T20:49:52.955Z,18.13
2024-04-14T20:52:22.008Z,17.88
2024-04-14T20:54:51.031Z,18.01
2024-04-14T20:57:20.053Z,19.05
2024-04-14T20:59:49.179Z,18.08
2024-04-14T21:02:21.317Z,19.29
2024-04-14T21:04:50.878Z,19.02
2024-04-14T21:07:20.037Z,18.84
2024-04-14T21:09:52.567Z,19.43
2024-04-14T21:12:22.343Z,19.43
2024-04-14T21:14:54.679Z,18.73
2024-04-14T21:17:24.518Z,19.49
2024-04-14T21:19:58.011Z,19.27
2024-04-14T21:22:28.914Z,19.53
2024-04-14T21:24:59.522Z,19.82
2024-04-14T21:27:31.517Z,19.28
2024-04-14T21:30:01.459Z,19.89
2024-04-14T21:32:32.204Z,20.41
2024-04-14T21:35:01.665Z,20.00
2024-04-14T21:37:33.423Z,20.00
2024-04-14T21:40:04.074Z,20.21
2024-04-14T21:42:34.919Z,20.80
2024-04-14T21:45:05.967Z,20.70
2024-04-14T21:47:37.348Z,19.34
2024-04-14T21:50:08.784Z,19.56
2024-04-14T21:52:39.605Z,19.62
2024-04-14T21:55:14.106Z,19.34
2024-04-14T21:57:47.257Z,19.57
2024-04-14T22:00:18.630Z,20.92
2024-04-14T22:02:48.419Z,20.57
2024-04-14T22:05:23.993Z,20.44
2024-04-14T22:07:54.724Z,20.41
2024-04-14T22:10:24.567Z,19.75
2024-04-14T22:12:57.621Z,20.71
2024-04-14T22:15:28.629Z,21.64
2024-04-14T22:17:59.505Z,20.72
2024-04-14T22:20:29.479Z,20.87
2024-04-14T22:22:59.213Z,21.47
2024-04-14T22:25:29.751Z,21.75
2024-04-14T22:28:04.123Z,21.75
2024-04-14T22:30:34.360Z,20.58
2024-04-14T22:33:09.040Z,20.39
2024-04-14T22:35:42.790Z,20.82
2024-04-14T22:38:13.479Z,21.31
2024-04-14T22:40:44.318Z,20.92
2024-04-14T22:43:15.247Z,21.44
2024-04-14T22:45:46.008Z,20.79
2024-04-14T22:48:15.451Z,21.10
2024-04-14T22:50:46.433Z,21.08
2024-04-14T22:53:15.737Z,21.48
2024-04-14T22:55:47.024Z,21.92
2024-04-14T22:58:19.727Z,21.50
2024-04-14T23:00:53.181Z,21.70
2024-04-14T23:03:23.919Z,21.94
